Terminal Aerodrome Forecast
Issued by NWS

Home | Current Version | Previous Version | Text Only | Print | Product List | Glossary On
Versions: 1 2 3 4 5 6 7 8 9 10 11 12 13 14 15 16 17 18 19 20 21 22 23 24 25
000
FTUS43 KDVN 280801 AAB
TAFCID
TAF AMD
KCID 280801Z 2808/2906 21005KT 6SM BR VCSH BKN035
      TEMPO 2808/2811 4SM -SHRA BR BKN018
     FM281600 18010KT P6SM BKN035 PROB30 2821/2901 4SM TSRA BKN025CB
     FM290100 20006KT P6SM BKN200=

USA.gov is the U.S. government's official web portal to all federal, state and local government web resources and services.